createdAt,value
2022-11-28T00:04:10.912Z,9.50
2022-11-28T00:09:14.590Z,9.20
2022-11-28T00:14:18.668Z,9.20
2022-11-28T00:19:21.058Z,9.20
2022-11-28T00:24:23.374Z,9.10
2022-11-28T00:29:25.667Z,9.10
2022-11-28T00:34:27.950Z,9.10
2022-11-28T00:39:30.469Z,9.60
2022-11-28T00:44:32.790Z,9.10
2022-11-28T00:49:35.254Z,9.00
2022-11-28T00:54:37.825Z,9.30
2022-11-28T00:59:40.255Z,9.30
2022-11-28T01:04:43.466Z,9.40
2022-11-28T01:09:46.164Z,9.50
2022-11-28T01:14:48.471Z,9.80
2022-11-28T01:19:50.948Z,10.10
2022-11-28T01:24:53.592Z,10.10
2022-11-28T01:29:55.902Z,10.20
2022-11-28T01:34:58.206Z,10.30
2022-11-28T01:40:00.769Z,10.30
2022-11-28T01:45:13.670Z,10.30
2022-11-28T01:50:17.372Z,10.30
2022-11-28T01:55:22.895Z,10.10
2022-11-28T02:00:25.419Z,10.30
2022-11-28T02:05:27.928Z,10.00
2022-11-28T02:10:48.283Z,10.00
2022-11-28T02:16:21.955Z,9.70
2022-11-28T02:21:30.604Z,9.70
2022-11-28T02:26:54.707Z,10.10
2022-11-28T02:32:27.594Z,10.30
2022-11-28T02:37:54.217Z,10.50
2022-11-28T02:43:16.916Z,10.50
2022-11-28T02:48:31.877Z,10.60
2022-11-28T02:53:35.098Z,10.40
2022-11-28T02:58:37.458Z,10.30
2022-11-28T03:04:06.818Z,10.20
2022-11-28T03:09:30.589Z,10.10
2022-11-28T03:14:58.364Z,9.90
2022-11-28T03:20:30.471Z,10.10
2022-11-28T03:25:58.941Z,9.90
2022-11-28T03:31:04.586Z,10.00
2022-11-28T03:36:17.920Z,10.10
2022-11-28T03:42:12.838Z,10.30
2022-11-28T03:47:15.749Z,10.20
2022-11-28T03:52:33.214Z,10.50
2022-11-28T03:57:56.969Z,10.20
2022-11-28T04:03:25.455Z,9.80
2022-11-28T04:08:35.243Z,10.30
2022-11-28T04:13:50.130Z,10.50
2022-11-28T04:18:58.410Z,10.40
2022-11-28T04:24:05.801Z,10.30
2022-11-28T04:29:11.150Z,9.90
2022-11-28T04:34:18.440Z,10.20
2022-11-28T04:39:25.124Z,9.80
2022-11-28T04:44:36.509Z,9.60
2022-11-28T04:49:39.629Z,9.60
2022-11-28T04:55:03.485Z,9.40
2022-11-28T05:00:12.471Z,9.50
2022-11-28T05:05:24.296Z,9.70
2022-11-28T05:10:26.574Z,9.50
2022-11-28T05:15:28.961Z,9.50
2022-11-28T05:20:31.513Z,9.60
2022-11-28T05:25:34.236Z,9.80
2022-11-28T05:30:36.604Z,9.50
2022-11-28T05:35:39.957Z,9.40
2022-11-28T05:40:44.301Z,9.90
2022-11-28T05:45:46.733Z,10.10
2022-11-28T05:50:50.773Z,9.90
2022-11-28T05:55:53.025Z,9.80
2022-11-28T06:00:59.140Z,9.70
2022-11-28T06:06:01.511Z,9.60
2022-11-28T06:11:03.825Z,9.70
2022-11-28T06:16:15.786Z,9.90
2022-11-28T06:21:18.259Z,10.10
2022-11-28T06:26:23.829Z,10.20
2022-11-28T06:31:29.027Z,10.50
2022-11-28T06:36:31.367Z,10.40
2022-11-28T06:41:33.807Z,10.50
2022-11-28T06:46:36.065Z,10.10
2022-11-28T06:51:39.176Z,9.80
2022-11-28T06:56:41.845Z,9.40
2022-11-28T07:01:44.159Z,9.50
2022-11-28T07:06:46.502Z,9.80
2022-11-28T07:11:48.827Z,10.20
2022-11-28T07:16:51.136Z,10.20
2022-11-28T07:21:53.581Z,10.30
2022-11-28T07:26:56.524Z,10.40
2022-11-28T07:31:58.825Z,10.30
2022-11-28T07:37:01.475Z,10.20
2022-11-28T07:42:03.908Z,10.00
2022-11-28T07:47:07.348Z,9.90
2022-11-28T07:52:10.018Z,9.80
2022-11-28T07:57:13.374Z,9.80
2022-11-28T08:02:17.547Z,9.80
2022-11-28T08:07:19.925Z,9.70
2022-11-28T08:12:22.321Z,9.60
2022-11-28T08:17:24.877Z,9.70
2022-11-28T08:22:28.103Z,9.50
2022-11-28T08:27:31.738Z,9.50
2022-11-28T08:32:34.255Z,9.50
2022-11-28T08:37:36.534Z,9.50
2022-11-28T08:42:39.118Z,9.60
2022-11-28T08:47:41.458Z,9.60
2022-11-28T08:52:43.908Z,9.50
2022-11-28T08:57:46.187Z,9.40
2022-11-28T09:02:48.477Z,9.40
2022-11-28T09:07:50.936Z,9.50
2022-11-28T09:12:53.327Z,9.60
2022-11-28T09:17:55.654Z,9.80
2022-11-28T09:22:57.992Z,9.70
2022-11-28T09:28:01.169Z,9.70
2022-11-28T09:33:04.697Z,9.80
2022-11-28T09:38:07.457Z,9.90
2022-11-28T09:43:18.567Z,10.00
2022-11-28T09:48:24.800Z,9.90
2022-11-28T09:53:43.845Z,9.90
2022-11-28T09:58:53.374Z,9.80
2022-11-28T10:04:20.988Z,9.80
2022-11-28T10:09:55.304Z,9.80
2022-11-28T10:15:22.912Z,9.80
2022-11-28T10:20:31.804Z,10.00
2022-11-28T10:25:43.953Z,9.90
2022-11-28T10:30:51.253Z,10.00
2022-11-28T10:35:59.637Z,10.00
2022-11-28T10:41:30.973Z,10.30
2022-11-28T10:47:00.512Z,10.30
2022-11-28T10:52:11.676Z,10.30
2022-11-28T10:57:22.992Z,10.40
2022-11-28T11:02:40.690Z,10.20
2022-11-28T11:07:55.438Z,10.10
2022-11-28T11:12:58.693Z,10.20
2022-11-28T11:18:06.108Z,10.20
2022-11-28T11:23:20.638Z,10.50
2022-11-28T11:28:36.815Z,10.40
2022-11-28T11:33:39.321Z,10.30
2022-11-28T11:38:42.339Z,10.40
2022-11-28T11:43:44.667Z,10.40
2022-11-28T11:48:53.213Z,10.30
2022-11-28T11:54:14.897Z,10.40
2022-11-28T11:59:33.077Z,10.50
2022-11-28T12:04:47.104Z,10.50
2022-11-28T12:09:54.668Z,10.60
2022-11-28T12:14:57.889Z,10.70
2022-11-28T12:20:10.569Z,10.70
2022-11-28T12:25:25.573Z,10.70
2022-11-28T12:31:00.010Z,10.80
2022-11-28T12:36:12.366Z,10.80
2022-11-28T12:41:49.399Z,10.80
2022-11-28T12:47:03.673Z,10.60
2022-11-28T12:52:33.932Z,10.70
2022-11-28T12:58:11.080Z,10.70
2022-11-28T13:03:34.417Z,10.70
2022-11-28T13:09:01.918Z,10.70
2022-11-28T13:14:33.745Z,10.70
2022-11-28T13:20:00.993Z,10.80
2022-11-28T13:25:22.398Z,11.10
2022-11-28T13:30:27.355Z,11.30
2022-11-28T13:35:30.387Z,11.40
2022-11-28T13:40:42.776Z,11.50
2022-11-28T13:45:46.905Z,11.50
2022-11-28T13:51:18.341Z,11.50
2022-11-28T13:56:26.986Z,11.60
2022-11-28T14:01:44.044Z,11.50
2022-11-28T14:06:49.636Z,11.50
2022-11-28T14:12:02.381Z,11.70
2022-11-28T14:17:18.316Z,11.50
2022-11-28T14:22:39.750Z,11.60
2022-11-28T14:27:51.657Z,11.60
2022-11-28T14:33:02.615Z,11.70
2022-11-28T14:38:30.809Z,11.80
2022-11-28T14:43:42.549Z,11.90
2022-11-28T14:48:58.291Z,11.80
2022-11-28T14:54:00.705Z,11.80
2022-11-28T14:59:03.678Z,11.70
2022-11-28T15:04:29.525Z,11.60
2022-11-28T15:09:52.786Z,11.70
2022-11-28T15:14:58.045Z,11.80
2022-11-28T15:20:13.696Z,11.90
2022-11-28T15:25:25.772Z,11.80
2022-11-28T15:30:28.239Z,11.80
2022-11-28T15:35:32.431Z,11.80
2022-11-28T15:40:37.716Z,11.80
2022-11-28T15:45:42.206Z,11.70
2022-11-28T15:50:50.793Z,11.60
2022-11-28T15:56:14.832Z,11.50
2022-11-28T16:01:22.395Z,11.60
2022-11-28T16:06:30.604Z,11.70
2022-11-28T16:11:35.571Z,11.80
2022-11-28T16:16:39.845Z,11.80
2022-11-28T16:21:58.608Z,11.90
2022-11-28T16:27:05.033Z,11.90
2022-11-28T16:32:23.232Z,11.90
2022-11-28T16:37:27.906Z,12.00
2022-11-28T16:42:31.403Z,12.00
2022-11-28T16:47:34.026Z,12.00
2022-11-28T16:52:45.696Z,11.80
2022-11-28T16:57:53.421Z,11.80
2022-11-28T17:02:55.816Z,11.80
2022-11-28T17:07:59.618Z,11.90
2022-11-28T17:13:02.037Z,11.90
2022-11-28T17:18:04.489Z,11.90
2022-11-28T17:23:06.921Z,11.90
2022-11-28T17:28:09.569Z,11.80
2022-11-28T17:33:16.027Z,11.70
2022-11-28T17:38:19.986Z,11.40
2022-11-28T17:43:22.756Z,11.20
2022-11-28T17:48:25.244Z,11.10
2022-11-28T17:53:27.870Z,11.10
2022-11-28T17:58:30.435Z,11.10
2022-11-28T18:03:32.952Z,11.10
2022-11-28T18:08:35.685Z,11.20
2022-11-28T18:13:38.760Z,11.30
2022-11-28T18:18:41.640Z,11.40
2022-11-28T18:23:47.260Z,11.40
2022-11-28T18:28:50.456Z,11.50
2022-11-28T18:34:00.282Z,11.40
2022-11-28T18:39:06.659Z,11.40
2022-11-28T18:44:11.439Z,11.60
2022-11-28T18:49:15.509Z,11.60
2022-11-28T18:54:21.413Z,11.40
2022-11-28T18:59:24.624Z,11.40
2022-11-28T19:04:27.867Z,11.30
2022-11-28T19:09:30.212Z,11.10
2022-11-28T19:14:33.272Z,11.10
2022-11-28T19:19:37.337Z,11.10
2022-11-28T19:24:39.829Z,10.90
2022-11-28T19:29:44.343Z,10.90
2022-11-28T19:34:52.338Z,10.80
2022-11-28T19:40:02.212Z,11.00
2022-11-28T19:45:06.145Z,11.10
2022-11-28T19:50:10.456Z,11.10
2022-11-28T19:55:12.904Z,11.10
2022-11-28T20:00:16.354Z,11.10
2022-11-28T20:05:25.533Z,11.10
2022-11-28T20:10:28.231Z,11.00
2022-11-28T20:15:35.033Z,11.10
2022-11-28T20:20:38.792Z,11.10
2022-11-28T20:25:41.456Z,11.20
2022-11-28T20:30:46.097Z,11.10
2022-11-28T20:35:48.422Z,11.00
2022-11-28T20:40:51.882Z,11.00
2022-11-28T20:45:55.958Z,11.10
2022-11-28T20:50:59.938Z,11.10
2022-11-28T20:56:06.941Z,10.90
2022-11-28T21:01:16.937Z,10.90
2022-11-28T21:06:20.184Z,10.80
2022-11-28T21:11:50.522Z,10.80
2022-11-28T21:16:51.763Z,10.80
2022-11-28T21:21:55.265Z,10.60
2022-11-28T21:26:57.700Z,10.70
2022-11-28T21:32:01.406Z,10.70
2022-11-28T21:37:07.482Z,10.80
2022-11-28T21:42:13.930Z,10.80
2022-11-28T21:47:20.240Z,10.90
2022-11-28T21:52:24.643Z,10.90
2022-11-28T21:57:27.163Z,11.00
2022-11-28T22:02:31.013Z,11.10
2022-11-28T22:07:38.932Z,11.10
2022-11-28T22:12:44.585Z,11.00
2022-11-28T22:17:46.996Z,10.90
2022-11-28T22:22:49.966Z,10.90
2022-11-28T22:27:52.838Z,11.00
2022-11-28T22:32:55.416Z,11.00
2022-11-28T22:37:58.302Z,11.10
2022-11-28T22:43:00.920Z,11.00
2022-11-28T22:48:03.415Z,11.00
2022-11-28T22:53:06.035Z,10.80
2022-11-28T22:58:08.652Z,10.80
2022-11-28T23:03:14.092Z,10.90
2022-11-28T23:08:16.626Z,10.90
2022-11-28T23:13:20.214Z,11.00
2022-11-28T23:18:23.916Z,11.00
2022-11-28T23:23:26.554Z,11.00
2022-11-28T23:28:28.874Z,11.20
2022-11-28T23:33:31.316Z,11.10
2022-11-28T23:38:35.176Z,11.10
2022-11-28T23:43:37.791Z,11.20
2022-11-28T23:48:40.858Z,11.00
2022-11-28T23:53:43.920Z,11.10
2022-11-28T23:58:46.534Z,11.10
